sensor_id;sensor_type;location;lat;lon;timestamp;P1;durP1;ratioP1;P2;durP2;ratioP2
47481;SDS011;33219;47.410;9.730;2022-08-01T00:02:04;4.97;;;3.02;;
47481;SDS011;33219;47.410;9.730;2022-08-01T00:04:32;4.22;;;2.90;;
47481;SDS011;33219;47.410;9.730;2022-08-01T00:06:59;4.05;;;2.87;;
47481;SDS011;33219;47.410;9.730;2022-08-01T00:09:27;3.80;;;2.67;;
47481;SDS011;33219;47.410;9.730;2022-08-01T00:11:55;4.60;;;3.10;;
47481;SDS011;33219;47.410;9.730;2022-08-01T00:14:22;3.72;;;2.98;;
47481;SDS011;33219;47.410;9.730;2022-08-01T00:16:50;4.05;;;2.90;;
47481;SDS011;33219;47.410;9.730;2022-08-01T00:19:17;4.58;;;3.08;;
47481;SDS011;33219;47.410;9.730;2022-08-01T00:21:45;5.03;;;3.20;;
47481;SDS011;33219;47.410;9.730;2022-08-01T00:24:12;5.50;;;2.98;;
47481;SDS011;33219;47.410;9.730;2022-08-01T00:26:40;3.60;;;2.90;;
47481;SDS011;33219;47.410;9.730;2022-08-01T00:29:07;4.75;;;3.05;;
47481;SDS011;33219;47.410;9.730;2022-08-01T00:31:35;3.27;;;2.90;;
47481;SDS011;33219;47.410;9.730;2022-08-01T00:34:02;4.03;;;3.00;;
47481;SDS011;33219;47.410;9.730;2022-08-01T00:36:30;4.15;;;3.20;;
47481;SDS011;33219;47.410;9.730;2022-08-01T00:38:57;4.85;;;3.20;;
47481;SDS011;33219;47.410;9.730;2022-08-01T00:41:25;3.55;;;2.92;;
47481;SDS011;33219;47.410;9.730;2022-08-01T00:43:53;4.78;;;3.10;;
47481;SDS011;33219;47.410;9.730;2022-08-01T00:46:20;5.08;;;3.00;;
47481;SDS011;33219;47.410;9.730;2022-08-01T00:48:48;6.10;;;3.17;;
47481;SDS011;33219;47.410;9.730;2022-08-01T00:51:15;3.80;;;3.10;;
47481;SDS011;33219;47.410;9.730;2022-08-01T00:53:43;4.45;;;3.00;;
47481;SDS011;33219;47.410;9.730;2022-08-01T00:56:11;5.60;;;3.02;;
47481;SDS011;33219;47.410;9.730;2022-08-01T00:58:40;4.60;;;2.83;;
47481;SDS011;33219;47.410;9.730;2022-08-01T01:01:08;5.00;;;3.10;;
47481;SDS011;33219;47.410;9.730;2022-08-01T01:03:36;3.83;;;2.80;;
47481;SDS011;33219;47.410;9.730;2022-08-01T01:06:05;3.90;;;2.80;;
47481;SDS011;33219;47.410;9.730;2022-08-01T01:08:39;5.28;;;2.90;;
47481;SDS011;33219;47.410;9.730;2022-08-01T01:11:08;3.50;;;2.80;;
47481;SDS011;33219;47.410;9.730;2022-08-01T01:13:46;5.03;;;3.12;;
47481;SDS011;33219;47.410;9.730;2022-08-01T01:16:15;4.53;;;2.90;;
47481;SDS011;33219;47.410;9.730;2022-08-01T01:18:51;4.83;;;2.80;;
47481;SDS011;33219;47.410;9.730;2022-08-01T01:26:36;3.85;;;3.02;;
47481;SDS011;33219;47.410;9.730;2022-08-01T01:29:20;3.60;;;2.90;;
47481;SDS011;33219;47.410;9.730;2022-08-01T01:31:48;3.62;;;2.70;;
47481;SDS011;33219;47.410;9.730;2022-08-01T01:34:18;4.25;;;2.72;;
47481;SDS011;33219;47.410;9.730;2022-08-01T01:36:47;4.40;;;2.62;;
47481;SDS011;33219;47.410;9.730;2022-08-01T01:39:17;3.62;;;2.65;;
47481;SDS011;33219;47.410;9.730;2022-08-01T01:41:46;4.55;;;2.90;;
47481;SDS011;33219;47.410;9.730;2022-08-01T01:44:16;3.75;;;2.80;;
47481;SDS011;33219;47.410;9.730;2022-08-01T01:46:45;3.55;;;2.80;;
47481;SDS011;33219;47.410;9.730;2022-08-01T01:49:13;5.62;;;3.35;;
47481;SDS011;33219;47.410;9.730;2022-08-01T01:51:43;4.00;;;2.70;;
47481;SDS011;33219;47.410;9.730;2022-08-01T01:54:14;5.00;;;3.10;;
47481;SDS011;33219;47.410;9.730;2022-08-01T01:56:42;3.60;;;2.72;;
47481;SDS011;33219;47.410;9.730;2022-08-01T01:59:18;3.42;;;2.70;;
47481;SDS011;33219;47.410;9.730;2022-08-01T02:01:49;4.10;;;3.10;;
47481;SDS011;33219;47.410;9.730;2022-08-01T02:04:19;4.15;;;2.90;;
47481;SDS011;33219;47.410;9.730;2022-08-01T02:06:50;5.20;;;2.83;;
47481;SDS011;33219;47.410;9.730;2022-08-01T02:09:19;3.40;;;2.87;;
47481;SDS011;33219;47.410;9.730;2022-08-01T02:11:48;4.03;;;3.20;;
47481;SDS011;33219;47.410;9.730;2022-08-01T02:14:16;4.20;;;3.30;;
47481;SDS011;33219;47.410;9.730;2022-08-01T02:16:49;4.37;;;3.25;;
47481;SDS011;33219;47.410;9.730;2022-08-01T02:19:17;4.30;;;3.22;;
47481;SDS011;33219;47.410;9.730;2022-08-01T02:21:59;4.87;;;3.12;;
47481;SDS011;33219;47.410;9.730;2022-08-01T02:27:05;4.12;;;3.40;;
47481;SDS011;33219;47.410;9.730;2022-08-01T02:29:47;4.25;;;3.40;;
47481;SDS011;33219;47.410;9.730;2022-08-01T02:32:17;5.45;;;3.30;;
47481;SDS011;33219;47.410;9.730;2022-08-01T02:34:49;4.60;;;3.42;;
47481;SDS011;33219;47.410;9.730;2022-08-01T02:37:20;5.65;;;3.40;;
47481;SDS011;33219;47.410;9.730;2022-08-01T02:39:49;4.17;;;3.58;;
47481;SDS011;33219;47.410;9.730;2022-08-01T02:42:19;4.40;;;3.35;;
47481;SDS011;33219;47.410;9.730;2022-08-01T02:44:49;4.37;;;3.52;;
47481;SDS011;33219;47.410;9.730;2022-08-01T02:47:19;3.77;;;3.40;;
47481;SDS011;33219;47.410;9.730;2022-08-01T02:49:48;3.60;;;3.00;;
47481;SDS011;33219;47.410;9.730;2022-08-01T02:52:19;3.60;;;3.10;;
47481;SDS011;33219;47.410;9.730;2022-08-01T02:54:48;4.22;;;3.10;;
47481;SDS011;33219;47.410;9.730;2022-08-01T02:57:18;4.12;;;3.22;;
47481;SDS011;33219;47.410;9.730;2022-08-01T02:59:48;4.00;;;3.00;;
47481;SDS011;33219;47.410;9.730;2022-08-01T03:02:17;3.50;;;2.83;;
47481;SDS011;33219;47.410;9.730;2022-08-01T03:04:47;4.42;;;3.30;;
47481;SDS011;33219;47.410;9.730;2022-08-01T03:07:17;4.87;;;3.10;;
47481;SDS011;33219;47.410;9.730;2022-08-01T03:09:47;6.17;;;2.90;;
47481;SDS011;33219;47.410;9.730;2022-08-01T03:12:20;5.10;;;3.25;;
47481;SDS011;33219;47.410;9.730;2022-08-01T03:14:50;3.83;;;2.83;;
47481;SDS011;33219;47.410;9.730;2022-08-01T03:17:20;3.12;;;2.83;;
47481;SDS011;33219;47.410;9.730;2022-08-01T03:19:50;4.03;;;2.70;;
47481;SDS011;33219;47.410;9.730;2022-08-01T03:22:20;5.37;;;3.00;;
47481;SDS011;33219;47.410;9.730;2022-08-01T03:24:52;4.00;;;2.92;;
47481;SDS011;33219;47.410;9.730;2022-08-01T03:27:19;6.12;;;3.02;;
47481;SDS011;33219;47.410;9.730;2022-08-01T03:29:48;3.65;;;2.80;;
47481;SDS011;33219;47.410;9.730;2022-08-01T03:32:17;4.40;;;3.20;;
47481;SDS011;33219;47.410;9.730;2022-08-01T03:34:46;3.65;;;2.90;;
47481;SDS011;33219;47.410;9.730;2022-08-01T03:37:15;3.90;;;2.90;;
47481;SDS011;33219;47.410;9.730;2022-08-01T03:39:54;4.78;;;3.10;;
47481;SDS011;33219;47.410;9.730;2022-08-01T03:42:23;4.83;;;2.90;;
47481;SDS011;33219;47.410;9.730;2022-08-01T03:44:54;3.20;;;2.83;;
47481;SDS011;33219;47.410;9.730;2022-08-01T03:47:33;5.12;;;3.00;;
47481;SDS011;33219;47.410;9.730;2022-08-01T03:49:53;3.72;;;3.08;;
47481;SDS011;33219;47.410;9.730;2022-08-01T03:52:22;5.42;;;3.08;;
47481;SDS011;33219;47.410;9.730;2022-08-01T03:54:53;5.00;;;2.83;;
47481;SDS011;33219;47.410;9.730;2022-08-01T03:57:23;4.05;;;2.77;;
47481;SDS011;33219;47.410;9.730;2022-08-01T03:59:52;4.80;;;2.90;;
47481;SDS011;33219;47.410;9.730;2022-08-01T04:02:21;4.97;;;3.00;;
47481;SDS011;33219;47.410;9.730;2022-08-01T04:04:49;3.65;;;2.83;;
47481;SDS011;33219;47.410;9.730;2022-08-01T04:07:34;5.37;;;2.80;;
47481;SDS011;33219;47.410;9.730;2022-08-01T04:10:00;5.30;;;3.50;;
47481;SDS011;33219;47.410;9.730;2022-08-01T04:12:28;3.72;;;3.33;;
47481;SDS011;33219;47.410;9.730;2022-08-01T04:14:56;5.05;;;3.55;;
47481;SDS011;33219;47.410;9.730;2022-08-01T04:17:24;5.50;;;3.10;;
47481;SDS011;33219;47.410;9.730;2022-08-01T04:19:52;4.85;;;3.02;;
47481;SDS011;33219;47.410;9.730;2022-08-01T04:22:19;4.95;;;3.72;;
47481;SDS011;33219;47.410;9.730;2022-08-01T04:24:47;6.15;;;3.22;;
47481;SDS011;33219;47.410;9.730;2022-08-01T04:29:47;4.85;;;3.72;;
47481;SDS011;33219;47.410;9.730;2022-08-01T04:32:17;7.40;;;3.42;;
47481;SDS011;33219;47.410;9.730;2022-08-01T04:34:47;6.30;;;3.80;;
47481;SDS011;33219;47.410;9.730;2022-08-01T04:37:16;6.15;;;3.35;;
47481;SDS011;33219;47.410;9.730;2022-08-01T04:39:45;4.10;;;3.15;;
47481;SDS011;33219;47.410;9.730;2022-08-01T04:42:14;3.67;;;3.17;;
47481;SDS011;33219;47.410;9.730;2022-08-01T04:44:42;4.05;;;2.80;;
47481;SDS011;33219;47.410;9.730;2022-08-01T04:47:10;6.47;;;3.08;;
47481;SDS011;33219;47.410;9.730;2022-08-01T04:49:39;4.17;;;2.90;;
47481;SDS011;33219;47.410;9.730;2022-08-01T04:52:07;4.72;;;2.80;;
47481;SDS011;33219;47.410;9.730;2022-08-01T04:54:36;4.17;;;3.00;;
47481;SDS011;33219;47.410;9.730;2022-08-01T04:57:04;3.85;;;3.00;;
47481;SDS011;33219;47.410;9.730;2022-08-01T04:59:33;5.15;;;3.27;;
47481;SDS011;33219;47.410;9.730;2022-08-01T05:02:16;4.40;;;3.12;;
47481;SDS011;33219;47.410;9.730;2022-08-01T05:04:45;5.80;;;3.42;;
47481;SDS011;33219;47.410;9.730;2022-08-01T05:07:12;4.40;;;3.15;;
47481;SDS011;33219;47.410;9.730;2022-08-01T05:09:41;3.95;;;3.35;;
47481;SDS011;33219;47.410;9.730;2022-08-01T05:12:11;3.52;;;3.02;;
47481;SDS011;33219;47.410;9.730;2022-08-01T05:14:38;4.70;;;3.27;;
47481;SDS011;33219;47.410;9.730;2022-08-01T05:17:07;7.47;;;3.60;;
47481;SDS011;33219;47.410;9.730;2022-08-01T05:19:37;6.03;;;3.70;;
47481;SDS011;33219;47.410;9.730;2022-08-01T05:24:52;6.53;;;3.52;;
47481;SDS011;33219;47.410;9.730;2022-08-01T05:27:20;5.53;;;3.22;;
47481;SDS011;33219;47.410;9.730;2022-08-01T05:29:48;4.72;;;3.35;;
47481;SDS011;33219;47.410;9.730;2022-08-01T05:32:15;5.55;;;3.10;;
47481;SDS011;33219;47.410;9.730;2022-08-01T05:34:43;4.20;;;2.83;;
47481;SDS011;33219;47.410;9.730;2022-08-01T05:37:10;4.37;;;3.10;;
47481;SDS011;33219;47.410;9.730;2022-08-01T05:39:38;3.37;;;2.70;;
47481;SDS011;33219;47.410;9.730;2022-08-01T05:42:05;3.90;;;2.87;;
47481;SDS011;33219;47.410;9.730;2022-08-01T05:44:33;4.35;;;3.10;;
47481;SDS011;33219;47.410;9.730;2022-08-01T05:47:01;3.90;;;2.72;;
47481;SDS011;33219;47.410;9.730;2022-08-01T05:49:28;4.20;;;2.80;;
47481;SDS011;33219;47.410;9.730;2022-08-01T05:51:56;4.25;;;2.70;;
47481;SDS011;33219;47.410;9.730;2022-08-01T05:54:23;3.05;;;2.50;;
47481;SDS011;33219;47.410;9.730;2022-08-01T05:56:51;3.90;;;2.65;;
47481;SDS011;33219;47.410;9.730;2022-08-01T05:59:18;4.42;;;2.77;;
47481;SDS011;33219;47.410;9.730;2022-08-01T06:01:46;3.40;;;2.37;;
47481;SDS011;33219;47.410;9.730;2022-08-01T06:04:13;3.95;;;2.25;;
47481;SDS011;33219;47.410;9.730;2022-08-01T06:06:41;3.65;;;2.37;;
47481;SDS011;33219;47.410;9.730;2022-08-01T06:09:08;5.12;;;2.33;;
47481;SDS011;33219;47.410;9.730;2022-08-01T06:11:36;3.50;;;2.40;;
47481;SDS011;33219;47.410;9.730;2022-08-01T06:14:04;5.50;;;2.60;;
47481;SDS011;33219;47.410;9.730;2022-08-01T06:16:31;2.90;;;2.50;;
47481;SDS011;33219;47.410;9.730;2022-08-01T06:18:59;4.80;;;2.50;;
47481;SDS011;33219;47.410;9.730;2022-08-01T06:21:27;4.92;;;2.40;;
47481;SDS011;33219;47.410;9.730;2022-08-01T06:23:54;4.22;;;2.50;;
47481;SDS011;33219;47.410;9.730;2022-08-01T06:26:22;4.05;;;2.22;;
47481;SDS011;33219;47.410;9.730;2022-08-01T06:28:49;5.53;;;2.58;;
47481;SDS011;33219;47.410;9.730;2022-08-01T06:31:17;3.25;;;2.40;;
47481;SDS011;33219;47.410;9.730;2022-08-01T06:33:44;3.30;;;2.30;;
47481;SDS011;33219;47.410;9.730;2022-08-01T06:36:12;3.58;;;2.30;;
47481;SDS011;33219;47.410;9.730;2022-08-01T06:38:39;3.60;;;2.40;;
47481;SDS011;33219;47.410;9.730;2022-08-01T06:41:07;5.35;;;2.40;;
47481;SDS011;33219;47.410;9.730;2022-08-01T06:43:34;3.83;;;2.70;;
47481;SDS011;33219;47.410;9.730;2022-08-01T06:46:02;4.50;;;2.50;;
47481;SDS011;33219;47.410;9.730;2022-08-01T06:48:30;2.98;;;2.35;;
47481;SDS011;33219;47.410;9.730;2022-08-01T06:50:58;3.17;;;2.30;;
47481;SDS011;33219;47.410;9.730;2022-08-01T06:53:35;3.70;;;2.50;;
47481;SDS011;33219;47.410;9.730;2022-08-01T06:56:04;2.40;;;2.20;;
47481;SDS011;33219;47.410;9.730;2022-08-01T06:58:34;4.05;;;2.60;;
47481;SDS011;33219;47.410;9.730;2022-08-01T07:01:03;3.45;;;2.52;;
47481;SDS011;33219;47.410;9.730;2022-08-01T07:03:33;2.70;;;2.20;;
47481;SDS011;33219;47.410;9.730;2022-08-01T07:06:01;3.65;;;3.05;;
47481;SDS011;33219;47.410;9.730;2022-08-01T07:08:29;4.08;;;2.62;;
47481;SDS011;33219;47.410;9.730;2022-08-01T07:10:57;4.03;;;2.50;;
47481;SDS011;33219;47.410;9.730;2022-08-01T07:13:26;4.20;;;2.67;;
47481;SDS011;33219;47.410;9.730;2022-08-01T07:15:53;3.45;;;2.37;;
47481;SDS011;33219;47.410;9.730;2022-08-01T07:18:21;3.60;;;2.40;;
47481;SDS011;33219;47.410;9.730;2022-08-01T07:20:49;3.95;;;2.40;;
47481;SDS011;33219;47.410;9.730;2022-08-01T07:23:17;3.12;;;2.40;;
47481;SDS011;33219;47.410;9.730;2022-08-01T07:25:44;3.80;;;2.30;;
47481;SDS011;33219;47.410;9.730;2022-08-01T07:28:13;3.50;;;2.50;;
47481;SDS011;33219;47.410;9.730;2022-08-01T07:30:41;3.85;;;2.60;;
47481;SDS011;33219;47.410;9.730;2022-08-01T07:33:10;4.53;;;2.50;;
47481;SDS011;33219;47.410;9.730;2022-08-01T07:35:37;4.58;;;2.50;;
47481;SDS011;33219;47.410;9.730;2022-08-01T07:38:05;4.05;;;2.50;;
47481;SDS011;33219;47.410;9.730;2022-08-01T07:40:33;4.45;;;2.30;;
47481;SDS011;33219;47.410;9.730;2022-08-01T07:43:01;3.10;;;2.33;;
47481;SDS011;33219;47.410;9.730;2022-08-01T07:45:29;4.67;;;2.58;;
47481;SDS011;33219;47.410;9.730;2022-08-01T07:48:01;3.80;;;2.37;;
47481;SDS011;33219;47.410;9.730;2022-08-01T07:50:30;3.52;;;2.52;;
47481;SDS011;33219;47.410;9.730;2022-08-01T07:52:58;3.58;;;2.50;;
47481;SDS011;33219;47.410;9.730;2022-08-01T07:55:26;3.33;;;2.12;;
47481;SDS011;33219;47.410;9.730;2022-08-01T07:57:53;4.42;;;2.40;;
47481;SDS011;33219;47.410;9.730;2022-08-01T08:00:21;4.58;;;2.80;;
47481;SDS011;33219;47.410;9.730;2022-08-01T08:02:48;2.87;;;2.33;;
47481;SDS011;33219;47.410;9.730;2022-08-01T08:05:16;4.33;;;2.52;;
47481;SDS011;33219;47.410;9.730;2022-08-01T08:07:45;4.83;;;2.37;;
47481;SDS011;33219;47.410;9.730;2022-08-01T08:10:12;3.22;;;2.45;;
47481;SDS011;33219;47.410;9.730;2022-08-01T08:12:40;3.30;;;2.40;;
47481;SDS011;33219;47.410;9.730;2022-08-01T08:15:08;4.45;;;2.58;;
47481;SDS011;33219;47.410;9.730;2022-08-01T08:17:36;4.05;;;2.77;;
47481;SDS011;33219;47.410;9.730;2022-08-01T08:20:04;5.22;;;2.33;;
47481;SDS011;33219;47.410;9.730;2022-08-01T08:22:33;3.55;;;2.45;;
47481;SDS011;33219;47.410;9.730;2022-08-01T08:25:01;3.72;;;2.58;;
47481;SDS011;33219;47.410;9.730;2022-08-01T08:27:28;4.90;;;2.50;;
47481;SDS011;33219;47.410;9.730;2022-08-01T08:29:57;5.78;;;2.50;;
47481;SDS011;33219;47.410;9.730;2022-08-01T08:32:24;4.03;;;2.33;;
47481;SDS011;33219;47.410;9.730;2022-08-01T08:34:52;5.67;;;2.62;;
47481;SDS011;33219;47.410;9.730;2022-08-01T08:37:19;4.37;;;2.67;;
47481;SDS011;33219;47.410;9.730;2022-08-01T08:39:47;2.85;;;2.50;;
47481;SDS011;33219;47.410;9.730;2022-08-01T08:42:14;4.58;;;2.85;;
47481;SDS011;33219;47.410;9.730;2022-08-01T08:44:42;5.65;;;2.70;;
47481;SDS011;33219;47.410;9.730;2022-08-01T08:47:15;4.95;;;2.67;;
47481;SDS011;33219;47.410;9.730;2022-08-01T08:49:40;2.70;;;2.20;;
47481;SDS011;33219;47.410;9.730;2022-08-01T08:52:10;3.30;;;2.80;;
47481;SDS011;33219;47.410;9.730;2022-08-01T08:54:38;3.45;;;2.45;;
47481;SDS011;33219;47.410;9.730;2022-08-01T08:57:08;6.10;;;2.80;;
47481;SDS011;33219;47.410;9.730;2022-08-01T08:59:37;4.28;;;2.77;;
47481;SDS011;33219;47.410;9.730;2022-08-01T09:02:06;3.60;;;2.70;;
47481;SDS011;33219;47.410;9.730;2022-08-01T09:04:35;3.50;;;2.60;;
47481;SDS011;33219;47.410;9.730;2022-08-01T09:07:04;3.83;;;3.00;;
47481;SDS011;33219;47.410;9.730;2022-08-01T09:09:33;3.92;;;2.50;;
47481;SDS011;33219;47.410;9.730;2022-08-01T09:12:03;3.95;;;2.83;;
47481;SDS011;33219;47.410;9.730;2022-08-01T09:14:30;4.28;;;3.22;;
47481;SDS011;33219;47.410;9.730;2022-08-01T09:17:01;3.83;;;2.77;;
47481;SDS011;33219;47.410;9.730;2022-08-01T09:19:35;3.92;;;2.90;;
47481;SDS011;33219;47.410;9.730;2022-08-01T09:22:12;3.35;;;2.90;;
47481;SDS011;33219;47.410;9.730;2022-08-01T09:24:52;5.50;;;3.30;;
47481;SDS011;33219;47.410;9.730;2022-08-01T09:27:26;4.28;;;3.10;;
47481;SDS011;33219;47.410;9.730;2022-08-01T09:29:53;4.17;;;2.87;;
47481;SDS011;33219;47.410;9.730;2022-08-01T09:32:22;4.33;;;2.92;;
47481;SDS011;33219;47.410;9.730;2022-08-01T09:34:50;5.47;;;3.00;;
47481;SDS011;33219;47.410;9.730;2022-08-01T09:37:18;4.20;;;2.80;;
47481;SDS011;33219;47.410;9.730;2022-08-01T09:39:48;3.62;;;3.10;;
47481;SDS011;33219;47.410;9.730;2022-08-01T09:42:23;4.95;;;2.98;;
47481;SDS011;33219;47.410;9.730;2022-08-01T09:44:52;3.15;;;2.45;;
47481;SDS011;33219;47.410;9.730;2022-08-01T09:47:20;3.30;;;3.00;;
47481;SDS011;33219;47.410;9.730;2022-08-01T09:49:56;4.78;;;3.00;;
47481;SDS011;33219;47.410;9.730;2022-08-01T09:52:25;3.92;;;2.72;;
47481;SDS011;33219;47.410;9.730;2022-08-01T09:55:01;3.62;;;2.70;;
47481;SDS011;33219;47.410;9.730;2022-08-01T09:57:30;4.40;;;2.62;;
47481;SDS011;33219;47.410;9.730;2022-08-01T09:59:58;3.12;;;2.58;;
47481;SDS011;33219;47.410;9.730;2022-08-01T10:05:04;4.22;;;3.12;;
47481;SDS011;33219;47.410;9.730;2022-08-01T10:07:33;3.65;;;3.00;;
47481;SDS011;33219;47.410;9.730;2022-08-01T10:10:19;4.08;;;3.00;;
47481;SDS011;33219;47.410;9.730;2022-08-01T10:12:47;5.90;;;3.00;;
47481;SDS011;33219;47.410;9.730;2022-08-01T10:15:15;5.78;;;3.30;;
47481;SDS011;33219;47.410;9.730;2022-08-01T10:17:50;5.42;;;3.40;;
47481;SDS011;33219;47.410;9.730;2022-08-01T10:20:20;5.03;;;3.40;;
47481;SDS011;33219;47.410;9.730;2022-08-01T10:22:49;5.17;;;2.98;;
47481;SDS011;33219;47.410;9.730;2022-08-01T10:25:20;3.70;;;3.30;;
47481;SDS011;33219;47.410;9.730;2022-08-01T10:27:48;6.15;;;3.50;;
47481;SDS011;33219;47.410;9.730;2022-08-01T10:30:18;5.83;;;3.17;;
47481;SDS011;33219;47.410;9.730;2022-08-01T10:32:46;5.40;;;3.20;;
47481;SDS011;33219;47.410;9.730;2022-08-01T10:35:14;4.62;;;3.10;;
47481;SDS011;33219;47.410;9.730;2022-08-01T10:37:44;3.67;;;3.02;;
47481;SDS011;33219;47.410;9.730;2022-08-01T10:40:13;4.90;;;3.37;;
47481;SDS011;33219;47.410;9.730;2022-08-01T10:42:42;4.95;;;3.10;;
47481;SDS011;33219;47.410;9.730;2022-08-01T10:45:12;4.97;;;3.90;;
47481;SDS011;33219;47.410;9.730;2022-08-01T10:50:41;3.60;;;2.95;;
47481;SDS011;33219;47.410;9.730;2022-08-01T10:53:15;6.22;;;3.80;;
47481;SDS011;33219;47.410;9.730;2022-08-01T10:55:46;6.10;;;3.52;;
47481;SDS011;33219;47.410;9.730;2022-08-01T10:58:21;4.75;;;3.83;;
47481;SDS011;33219;47.410;9.730;2022-08-01T11:03:57;5.30;;;3.55;;
47481;SDS011;33219;47.410;9.730;2022-08-01T11:12:06;4.12;;;3.10;;
47481;SDS011;33219;47.410;9.730;2022-08-01T11:17:31;5.50;;;3.25;;
47481;SDS011;33219;47.410;9.730;2022-08-01T11:20:06;5.00;;;3.50;;
47481;SDS011;33219;47.410;9.730;2022-08-01T11:23:21;3.45;;;3.08;;
47481;SDS011;33219;47.410;9.730;2022-08-01T11:25:22;4.25;;;2.92;;
47481;SDS011;33219;47.410;9.730;2022-08-01T11:28:36;4.35;;;2.98;;
47481;SDS011;33219;47.410;9.730;2022-08-01T11:30:26;4.78;;;3.20;;
47481;SDS011;33219;47.410;9.730;2022-08-01T11:32:56;5.42;;;3.10;;
47481;SDS011;33219;47.410;9.730;2022-08-01T11:35:23;4.47;;;2.90;;
47481;SDS011;33219;47.410;9.730;2022-08-01T11:37:55;3.50;;;2.85;;
47481;SDS011;33219;47.410;9.730;2022-08-01T11:40:24;3.52;;;2.98;;
47481;SDS011;33219;47.410;9.730;2022-08-01T11:45:51;5.65;;;3.05;;
47481;SDS011;33219;47.410;9.730;2022-08-01T11:48:20;3.65;;;2.83;;
47481;SDS011;33219;47.410;9.730;2022-08-01T11:50:46;3.98;;;3.05;;
47481;SDS011;33219;47.410;9.730;2022-08-01T11:53:15;3.50;;;2.92;;
47481;SDS011;33219;47.410;9.730;2022-08-01T11:55:46;4.03;;;3.00;;
47481;SDS011;33219;47.410;9.730;2022-08-01T11:58:14;3.92;;;3.05;;
47481;SDS011;33219;47.410;9.730;2022-08-01T12:00:49;4.62;;;3.08;;
47481;SDS011;33219;47.410;9.730;2022-08-01T12:03:22;4.03;;;2.95;;
47481;SDS011;33219;47.410;9.730;2022-08-01T12:05:53;4.00;;;2.95;;
47481;SDS011;33219;47.410;9.730;2022-08-01T12:08:24;5.08;;;3.00;;
47481;SDS011;33219;47.410;9.730;2022-08-01T12:11:05;3.98;;;2.90;;
47481;SDS011;33219;47.410;9.730;2022-08-01T12:13:42;3.35;;;2.80;;
47481;SDS011;33219;47.410;9.730;2022-08-01T12:16:11;3.25;;;2.85;;
47481;SDS011;33219;47.410;9.730;2022-08-01T12:18:42;4.12;;;3.27;;
47481;SDS011;33219;47.410;9.730;2022-08-01T12:23:37;3.98;;;2.95;;
47481;SDS011;33219;47.410;9.730;2022-08-01T12:26:04;3.20;;;2.90;;
47481;SDS011;33219;47.410;9.730;2022-08-01T12:28:38;3.70;;;2.83;;
47481;SDS011;33219;47.410;9.730;2022-08-01T12:31:07;4.72;;;2.85;;
47481;SDS011;33219;47.410;9.730;2022-08-01T12:33:34;3.80;;;3.00;;
47481;SDS011;33219;47.410;9.730;2022-08-01T12:36:02;4.35;;;3.02;;
47481;SDS011;33219;47.410;9.730;2022-08-01T12:38:30;6.87;;;3.45;;
47481;SDS011;33219;47.410;9.730;2022-08-01T12:40:58;3.45;;;2.95;;
47481;SDS011;33219;47.410;9.730;2022-08-01T12:43:26;4.65;;;2.90;;
47481;SDS011;33219;47.410;9.730;2022-08-01T12:45:56;3.20;;;2.55;;
47481;SDS011;33219;47.410;9.730;2022-08-01T12:48:26;4.17;;;2.92;;
47481;SDS011;33219;47.410;9.730;2022-08-01T12:50:56;4.37;;;2.40;;
47481;SDS011;33219;47.410;9.730;2022-08-01T12:53:26;4.08;;;2.62;;
47481;SDS011;33219;47.410;9.730;2022-08-01T12:55:54;4.25;;;2.50;;
47481;SDS011;33219;47.410;9.730;2022-08-01T12:58:22;5.12;;;2.80;;
47481;SDS011;33219;47.410;9.730;2022-08-01T13:00:50;4.20;;;2.70;;
47481;SDS011;33219;47.410;9.730;2022-08-01T13:03:19;4.10;;;2.58;;
47481;SDS011;33219;47.410;9.730;2022-08-01T13:05:48;3.22;;;2.70;;
47481;SDS011;33219;47.410;9.730;2022-08-01T13:08:24;4.42;;;2.87;;
47481;SDS011;33219;47.410;9.730;2022-08-01T13:10:59;4.30;;;2.60;;
47481;SDS011;33219;47.410;9.730;2022-08-01T13:13:43;4.33;;;2.90;;
47481;SDS011;33219;47.410;9.730;2022-08-01T13:16:18;4.15;;;2.67;;
47481;SDS011;33219;47.410;9.730;2022-08-01T13:18:55;3.47;;;2.55;;
47481;SDS011;33219;47.410;9.730;2022-08-01T13:21:20;3.92;;;2.50;;
47481;SDS011;33219;47.410;9.730;2022-08-01T13:29:20;3.95;;;2.90;;
47481;SDS011;33219;47.410;9.730;2022-08-01T13:31:48;4.28;;;2.90;;
47481;SDS011;33219;47.410;9.730;2022-08-01T13:34:16;3.92;;;2.77;;
47481;SDS011;33219;47.410;9.730;2022-08-01T13:36:44;3.60;;;2.60;;
47481;SDS011;33219;47.410;9.730;2022-08-01T13:39:12;3.27;;;2.70;;
47481;SDS011;33219;47.410;9.730;2022-08-01T13:41:57;3.75;;;2.50;;
47481;SDS011;33219;47.410;9.730;2022-08-01T13:44:25;4.97;;;2.83;;
47481;SDS011;33219;47.410;9.730;2022-08-01T13:46:52;4.10;;;2.87;;
47481;SDS011;33219;47.410;9.730;2022-08-01T13:49:21;3.30;;;2.50;;
47481;SDS011;33219;47.410;9.730;2022-08-01T13:51:49;3.30;;;2.72;;
47481;SDS011;33219;47.410;9.730;2022-08-01T13:54:16;3.35;;;2.70;;
47481;SDS011;33219;47.410;9.730;2022-08-01T13:56:44;3.72;;;2.70;;
47481;SDS011;33219;47.410;9.730;2022-08-01T13:59:12;4.58;;;3.00;;
47481;SDS011;33219;47.410;9.730;2022-08-01T14:01:40;3.90;;;2.70;;
47481;SDS011;33219;47.410;9.730;2022-08-01T14:04:07;3.37;;;2.95;;
47481;SDS011;33219;47.410;9.730;2022-08-01T14:06:35;6.45;;;2.92;;
47481;SDS011;33219;47.410;9.730;2022-08-01T14:09:03;2.87;;;2.58;;
47481;SDS011;33219;47.410;9.730;2022-08-01T14:11:31;3.27;;;2.62;;
47481;SDS011;33219;47.410;9.730;2022-08-01T14:13:59;3.22;;;2.47;;
47481;SDS011;33219;47.410;9.730;2022-08-01T14:16:27;4.40;;;2.80;;
47481;SDS011;33219;47.410;9.730;2022-08-01T14:18:54;6.70;;;3.15;;
47481;SDS011;33219;47.410;9.730;2022-08-01T14:21:22;3.05;;;2.65;;
47481;SDS011;33219;47.410;9.730;2022-08-01T14:23:49;3.75;;;2.95;;
47481;SDS011;33219;47.410;9.730;2022-08-01T14:26:17;3.52;;;2.70;;
47481;SDS011;33219;47.410;9.730;2022-08-01T14:28:45;3.65;;;2.62;;
47481;SDS011;33219;47.410;9.730;2022-08-01T14:31:12;4.37;;;2.83;;
47481;SDS011;33219;47.410;9.730;2022-08-01T14:33:40;3.95;;;2.80;;
47481;SDS011;33219;47.410;9.730;2022-08-01T14:36:07;3.27;;;2.47;;
47481;SDS011;33219;47.410;9.730;2022-08-01T14:38:34;3.75;;;2.67;;
47481;SDS011;33219;47.410;9.730;2022-08-01T14:41:02;3.90;;;2.80;;
47481;SDS011;33219;47.410;9.730;2022-08-01T14:43:30;4.10;;;2.42;;
47481;SDS011;33219;47.410;9.730;2022-08-01T14:46:00;4.00;;;2.70;;
47481;SDS011;33219;47.410;9.730;2022-08-01T14:48:29;3.17;;;2.60;;
47481;SDS011;33219;47.410;9.730;2022-08-01T14:50:57;3.00;;;2.27;;
47481;SDS011;33219;47.410;9.730;2022-08-01T14:53:26;3.75;;;2.50;;
47481;SDS011;33219;47.410;9.730;2022-08-01T14:55:54;4.87;;;2.52;;
47481;SDS011;33219;47.410;9.730;2022-08-01T14:58:22;3.08;;;2.37;;
47481;SDS011;33219;47.410;9.730;2022-08-01T15:00:49;3.35;;;2.35;;
47481;SDS011;33219;47.410;9.730;2022-08-01T15:03:18;3.17;;;2.42;;
47481;SDS011;33219;47.410;9.730;2022-08-01T15:05:47;2.52;;;2.33;;
47481;SDS011;33219;47.410;9.730;2022-08-01T15:08:14;3.00;;;2.50;;
47481;SDS011;33219;47.410;9.730;2022-08-01T15:10:42;4.70;;;2.70;;
47481;SDS011;33219;47.410;9.730;2022-08-01T15:13:09;6.08;;;2.60;;
47481;SDS011;33219;47.410;9.730;2022-08-01T15:15:37;4.70;;;2.40;;
47481;SDS011;33219;47.410;9.730;2022-08-01T15:18:04;4.00;;;2.40;;
47481;SDS011;33219;47.410;9.730;2022-08-01T15:20:32;3.98;;;2.55;;
47481;SDS011;33219;47.410;9.730;2022-08-01T15:23:03;2.75;;;2.42;;
47481;SDS011;33219;47.410;9.730;2022-08-01T15:27:58;3.90;;;2.65;;
47481;SDS011;33219;47.410;9.730;2022-08-01T15:30:25;4.65;;;3.85;;
47481;SDS011;33219;47.410;9.730;2022-08-01T15:32:53;3.98;;;3.12;;
47481;SDS011;33219;47.410;9.730;2022-08-01T15:35:21;4.28;;;3.33;;
47481;SDS011;33219;47.410;9.730;2022-08-01T15:37:48;4.70;;;3.10;;
47481;SDS011;33219;47.410;9.730;2022-08-01T15:40:16;3.62;;;3.02;;
47481;SDS011;33219;47.410;9.730;2022-08-01T15:42:44;3.65;;;2.77;;
47481;SDS011;33219;47.410;9.730;2022-08-01T15:45:11;2.72;;;2.40;;